createdAt,value
2016-05-03T00:00:42.805Z,67.35
2016-05-03T00:01:42.808Z,67.35
2016-05-03T00:02:42.826Z,67.35
2016-05-03T00:03:42.813Z,67.35
2016-05-03T00:04:42.816Z,67.35
2016-05-03T00:05:42.804Z,68.21
2016-05-03T00:06:42.649Z,68.12
2016-05-03T00:07:42.887Z,68.69
2016-05-03T00:08:42.811Z,68.3
2016-05-03T00:09:42.815Z,68.5
2016-05-03T00:10:42.801Z,68.69
2016-05-03T00:11:42.804Z,68.78
2016-05-03T00:12:42.807Z,69.07
2016-05-03T00:13:42.825Z,68.88
2016-05-03T00:14:42.796Z,69.07
2016-05-03T00:15:42.799Z,68.69
2016-05-03T00:16:42.801Z,69.07
2016-05-03T00:17:42.789Z,69.54
2016-05-03T00:18:42.792Z,69.07
2016-05-03T00:19:42.779Z,69.17
2016-05-03T00:20:42.797Z,69.07
2016-05-03T00:21:42.643Z,69.74
2016-05-03T00:22:42.818Z,69.17
2016-05-03T00:23:42.773Z,69.45
2016-05-03T00:24:42.776Z,69.74
2016-05-03T00:25:42.644Z,69.35
2016-05-03T00:26:42.768Z,69.83
2016-05-03T00:27:42.822Z,70.31
2016-05-03T00:28:42.850Z,69.64
2016-05-03T00:29:42.618Z,69.45
2016-05-03T00:30:42.765Z,69.64
2016-05-03T00:31:42.785Z,69.99
2016-05-03T00:32:42.772Z,70.18
2016-05-03T00:33:42.602Z,70.47
2016-05-03T00:34:42.776Z,70.47
2016-05-03T00:35:42.765Z,70.75
2016-05-03T00:36:42.767Z,70.65
2016-05-03T00:37:42.601Z,70.65
2016-05-03T00:38:42.760Z,70.94
2016-05-03T00:39:42.762Z,70.94
2016-05-03T00:40:42.765Z,71.51
2016-05-03T00:41:42.751Z,71.7
2016-05-03T00:42:42.740Z,71.32
2016-05-03T00:43:42.632Z,71.89
2016-05-03T00:44:42.745Z,71.61
2016-05-03T00:45:42.747Z,72.27
2016-05-03T00:46:42.734Z,72.17
2016-05-03T00:47:42.581Z,72.37
2016-05-03T00:48:42.740Z,72.27
2016-05-03T00:49:42.742Z,72.37
2016-05-03T00:50:42.729Z,73.13
2016-05-03T00:51:42.748Z,73.03
2016-05-03T00:52:42.734Z,73.22
2016-05-03T00:53:42.737Z,73.7
2016-05-03T00:54:42.740Z,73.41
2016-05-03T00:55:42.727Z,73.61
2016-05-03T00:56:42.714Z,73.03
2016-05-03T00:57:42.748Z,73.32
2016-05-03T00:58:42.719Z,73.13
2016-05-03T00:59:42.722Z,73.22
2016-05-03T01:00:42.741Z,73.32
2016-05-03T01:01:42.727Z,73.47
2016-05-03T01:02:42.715Z,73.61
2016-05-03T01:03:42.717Z,73.99
2016-05-03T01:04:42.704Z,73.95
2016-05-03T01:05:42.723Z,74.08
2016-05-03T01:06:42.710Z,73.41
2016-05-03T01:07:42.572Z,73.47
2016-05-03T01:08:42.699Z,73.66
2016-05-03T01:09:42.719Z,73.28
2016-05-03T01:10:42.548Z,74.24
2016-05-03T01:11:42.708Z,73.66
2016-05-03T01:12:42.695Z,73.66
2016-05-03T01:13:42.712Z,73.66
2016-05-03T01:14:42.701Z,73.47
2016-05-03T01:15:42.687Z,73.38
2016-05-03T01:16:42.690Z,73.66
2016-05-03T01:17:42.551Z,73.47
2016-05-03T01:18:42.696Z,73.38
2016-05-03T01:19:42.698Z,73.76
2016-05-03T01:20:42.685Z,73.66
2016-05-03T01:21:42.687Z,73.57
2016-05-03T01:22:42.675Z,73.28
2016-05-03T01:23:42.693Z,73.19
2016-05-03T01:24:42.681Z,73.19
2016-05-03T01:25:42.683Z,73.38
2016-05-03T01:26:42.686Z,73.38
2016-05-03T01:27:42.673Z,73.66
2016-05-03T01:28:42.675Z,73.38
2016-05-03T01:29:42.662Z,73.57
2016-05-03T01:30:42.680Z,73.47
2016-05-03T01:31:42.668Z,73.76
2016-05-03T01:32:42.514Z,73.66
2016-05-03T01:33:42.658Z,73.66
2016-05-03T01:34:42.661Z,73.76
2016-05-03T01:35:42.663Z,73.66
2016-05-03T01:36:42.666Z,74.04
2016-05-03T01:37:42.513Z,73.76
2016-05-03T01:38:42.671Z,73.66
2016-05-03T01:39:42.658Z,73.57
2016-05-03T01:40:42.643Z,73.47
2016-05-03T01:41:42.646Z,73.95
2016-05-03T01:42:42.649Z,73.76
2016-05-03T01:43:42.635Z,73.85
2016-05-03T01:44:42.654Z,73.85
2016-05-03T01:45:42.656Z,73.85
2016-05-03T01:46:42.643Z,74.24
2016-05-03T01:47:42.630Z,74.04
2016-05-03T01:48:42.633Z,74.33
2016-05-03T01:49:42.635Z,73.95
2016-05-03T01:50:42.623Z,73.66
2016-05-03T01:51:42.626Z,74.04
2016-05-03T01:52:42.628Z,73.95
2016-05-03T01:53:42.475Z,74.43
2016-05-03T01:54:42.618Z,74.52
2016-05-03T01:55:42.620Z,74.62
2016-05-03T01:56:42.468Z,74.43
2016-05-03T01:57:42.626Z,74.48
2016-05-03T01:58:42.612Z,74.62
2016-05-03T01:59:42.615Z,74.8
2016-05-03T02:00:42.634Z,74.71
2016-05-03T02:01:42.465Z,74.9
2016-05-03T02:02:42.623Z,74.87
2016-05-03T02:03:42.611Z,74.8
2016-05-03T02:04:42.629Z,74.67
2016-05-03T02:05:42.601Z,74.67
2016-05-03T02:06:42.464Z,74.39
2016-05-03T02:07:42.590Z,74.29
2016-05-03T02:08:42.578Z,74.77
2016-05-03T02:09:42.596Z,74.48
2016-05-03T02:10:42.442Z,74.96
2016-05-03T02:11:42.461Z,75.34
2016-05-03T02:12:42.572Z,74.48
2016-05-03T02:13:42.591Z,73.91
2016-05-03T02:14:42.610Z,74.48
2016-05-03T02:15:42.580Z,74.39
2016-05-03T02:16:42.427Z,74.2
2016-05-03T02:17:42.571Z,74.1
2016-05-03T02:18:42.588Z,74.01
2016-05-03T02:19:42.576Z,74.01
2016-05-03T02:20:42.579Z,74.01
2016-05-03T02:21:42.566Z,74.01
2016-05-03T02:22:42.412Z,74.01
2016-05-03T02:23:42.555Z,74.01
2016-05-03T02:24:42.557Z,74.01
2016-05-03T02:25:42.404Z,73.91
2016-05-03T02:26:42.563Z,73.63
2016-05-03T02:27:42.566Z,73.91
2016-05-03T02:28:42.553Z,73.82
2016-05-03T02:29:42.556Z,74.2
2016-05-03T02:30:42.543Z,74.29
2016-05-03T02:31:42.546Z,74.1
2016-05-03T02:32:42.548Z,74.87
2016-05-03T02:33:42.535Z,74.48
2016-05-03T02:34:42.554Z,74.77
2016-05-03T02:35:42.556Z,74.77
2016-05-03T02:36:42.544Z,75.24
2016-05-03T02:37:42.546Z,74.87
2016-05-03T02:38:42.550Z,74.77
2016-05-03T02:39:42.520Z,75.05
2016-05-03T02:40:42.554Z,75.24
2016-05-03T02:41:42.541Z,74.96
2016-05-03T02:42:42.544Z,75.24
2016-05-03T02:43:42.531Z,74.96
2016-05-03T02:44:42.519Z,74.58
2016-05-03T02:45:42.364Z,74.77
2016-05-03T02:46:42.367Z,74.48
2016-05-03T02:47:42.370Z,74.77
2016-05-03T02:48:42.513Z,74.96
2016-05-03T02:49:42.532Z,75.15
2016-05-03T02:50:42.487Z,74.96
2016-05-03T02:51:42.491Z,75.24
2016-05-03T02:52:44.227Z,75.24
2016-05-03T02:53:42.496Z,75.34
2016-05-03T02:54:42.483Z,75.15
2016-05-03T02:55:42.502Z,76.1
2016-05-03T02:56:42.488Z,76.1
2016-05-03T02:57:42.491Z,75.81
2016-05-03T02:58:42.494Z,75.15
2016-05-03T02:59:42.324Z,76.01
2016-05-03T03:00:42.468Z,75.62
2016-05-03T03:01:42.454Z,76.1
2016-05-03T03:02:42.301Z,76.2
2016-05-03T03:03:42.460Z,76.39
2016-05-03T03:04:42.479Z,76.48
2016-05-03T03:05:42.637Z,76.29
2016-05-03T03:06:42.468Z,76.2
2016-05-03T03:07:42.378Z,76.2
2016-05-03T03:08:42.458Z,76.29
2016-05-03T03:09:42.460Z,76.39
2016-05-03T03:10:42.479Z,76.1
2016-05-03T03:11:42.278Z,76.57
2016-05-03T03:12:42.281Z,76.67
2016-05-03T03:13:42.455Z,76.48
2016-05-03T03:14:42.443Z,77.24
2016-05-03T03:15:42.430Z,76.96
2016-05-03T03:16:42.417Z,76.86
2016-05-03T03:17:42.436Z,76.96
2016-05-03T03:18:42.438Z,77.05
2016-05-03T03:19:42.425Z,77.15
2016-05-03T03:20:42.427Z,77.43
2016-05-03T03:21:42.430Z,77.34
2016-05-03T03:22:42.589Z,77.68
2016-05-03T03:23:42.421Z,77.49
2016-05-03T03:24:42.438Z,77.97
2016-05-03T03:25:42.426Z,78.1
2016-05-03T03:26:42.412Z,77.49
2016-05-03T03:27:42.415Z,77.68
2016-05-03T03:28:42.402Z,77.87
2016-05-03T03:29:42.390Z,77.77
2016-05-03T03:30:42.408Z,77.49
2016-05-03T03:31:42.411Z,77.49
2016-05-03T03:32:42.398Z,77.53
2016-05-03T03:33:42.416Z,77.58
2016-05-03T03:34:42.403Z,77.49
2016-05-03T03:35:42.406Z,77.58
2016-05-03T03:36:42.409Z,77.58
2016-05-03T03:37:42.411Z,77.34
2016-05-03T03:38:42.398Z,77.49
2016-05-03T03:39:42.385Z,77.97
2016-05-03T03:40:42.356Z,77.97
2016-05-03T03:41:42.359Z,77.49
2016-05-03T03:42:42.378Z,77.68
2016-05-03T03:43:42.350Z,77.72
2016-05-03T03:44:42.353Z,77.39
2016-05-03T03:45:42.338Z,78.16
2016-05-03T03:46:42.357Z,77.72
2016-05-03T03:47:42.344Z,78.06
2016-05-03T03:48:42.347Z,78.06
2016-05-03T03:49:42.552Z,78.25
2016-05-03T03:50:42.337Z,77.81
2016-05-03T03:51:42.339Z,78.38
2016-05-03T03:52:42.374Z,77.34
2016-05-03T03:53:42.313Z,77.62
2016-05-03T03:54:42.347Z,77.15
2016-05-03T03:55:42.349Z,77.24
2016-05-03T03:56:42.353Z,77.34
2016-05-03T03:57:42.324Z,77.15
2016-05-03T03:58:42.310Z,77.15
2016-05-03T03:59:42.313Z,76.96
2016-05-03T04:00:42.332Z,76.67
2016-05-03T04:01:42.148Z,76.96
2016-05-03T04:02:42.307Z,77.15
2016-05-03T04:03:42.153Z,77.05
2016-05-03T04:04:42.312Z,76.67
2016-05-03T04:05:42.299Z,76.76
2016-05-03T04:06:42.302Z,76.29
2016-05-03T04:07:42.289Z,76.39
2016-05-03T04:08:42.291Z,76.48
2016-05-03T04:09:42.294Z,76.48
2016-05-03T04:10:42.297Z,77.34
2016-05-03T04:11:42.284Z,76.67
2016-05-03T04:12:42.287Z,76.39
2016-05-03T04:13:42.306Z,76.1
2016-05-03T04:14:42.275Z,76.01
2016-05-03T04:15:42.122Z,76.1
2016-05-03T04:16:42.297Z,76.2
2016-05-03T04:17:42.284Z,76.1
2016-05-03T04:18:42.115Z,76.01
2016-05-03T04:19:42.258Z,76.01
2016-05-03T04:20:42.105Z,75.72
2016-05-03T04:21:42.096Z,76.01
2016-05-03T04:22:42.567Z,76.39
2016-05-03T04:23:42.195Z,76.29
2016-05-03T04:24:42.400Z,76.2
2016-05-03T04:25:42.450Z,76.86
2016-05-03T04:26:42.480Z,77.15
2016-05-03T04:27:42.515Z,77.15
2016-05-03T04:28:42.502Z,77.15
2016-05-03T04:29:42.522Z,76.96
2016-05-03T04:30:42.541Z,76.39
2016-05-03T04:31:42.544Z,76.48
2016-05-03T04:32:42.552Z,76.29
2016-05-03T04:33:42.562Z,76.1
2016-05-03T04:34:42.555Z,75.81
2016-05-03T04:35:42.408Z,75.15
2016-05-03T04:36:42.571Z,75.15
2016-05-03T04:37:42.421Z,75.15
2016-05-03T04:38:42.582Z,75.24
2016-05-03T04:39:42.570Z,75.15
2016-05-03T04:40:42.576Z,74.87
2016-05-03T04:41:42.597Z,74.87
2016-05-03T04:42:42.412Z,74.58
2016-05-03T04:43:42.573Z,74.58
2016-05-03T04:44:42.591Z,74.29
2016-05-03T04:45:42.595Z,74.67
2016-05-03T04:46:42.598Z,74.77
2016-05-03T04:47:42.414Z,74.96
2016-05-03T04:48:42.573Z,75.24
2016-05-03T04:49:42.560Z,74.96
2016-05-03T04:50:42.548Z,74.96
2016-05-03T04:51:42.551Z,75.05
2016-05-03T04:52:42.554Z,74.96
2016-05-03T04:53:42.556Z,75.43
2016-05-03T04:54:42.559Z,75.15
2016-05-03T04:55:42.546Z,75.72
2016-05-03T04:56:42.549Z,76.01
2016-05-03T04:57:42.551Z,75.72
2016-05-03T04:58:42.539Z,75.81
2016-05-03T04:59:42.542Z,75.81
2016-05-03T05:00:42.528Z,75.81
2016-05-03T05:01:42.531Z,76.01
2016-05-03T05:02:42.534Z,75.62
2016-05-03T05:03:42.553Z,76.1
2016-05-03T05:04:42.539Z,76.39
2016-05-03T05:05:42.526Z,75.81
2016-05-03T05:06:42.528Z,76.2
2016-05-03T05:07:43.328Z,76.01
2016-05-03T05:08:42.550Z,75.91
2016-05-03T05:09:42.537Z,75.81
2016-05-03T05:10:42.555Z,75.81
2016-05-03T05:11:42.511Z,75.81
2016-05-03T05:12:42.358Z,75.91
2016-05-03T05:13:42.532Z,75.15
2016-05-03T05:14:42.503Z,75.15
2016-05-03T05:15:42.506Z,75.91
2016-05-03T05:16:42.508Z,75.72
2016-05-03T05:17:42.355Z,74.96
2016-05-03T05:18:42.499Z,75.05
2016-05-03T05:19:42.501Z,75.62
2016-05-03T05:20:42.488Z,74.96
2016-05-03T05:21:42.507Z,74.71
2016-05-03T05:22:42.760Z,74.58
2016-05-03T05:23:42.496Z,74.04
2016-05-03T05:24:42.530Z,73.1
2016-05-03T05:25:42.487Z,72.56
2016-05-03T05:26:42.473Z,70.65
2016-05-03T05:27:42.335Z,69.45
2016-05-03T05:28:42.494Z,67.48
2016-05-03T05:29:42.497Z,65.96
2016-05-03T05:30:42.484Z,65.04
2016-05-03T05:31:42.487Z,63.42
2016-05-03T05:32:42.489Z,62.46
2016-05-03T05:33:42.336Z,60.97
2016-05-03T05:34:42.495Z,59.95
2016-05-03T05:35:42.481Z,58.7
2016-05-03T05:36:42.469Z,57.68
2016-05-03T05:37:43.940Z,57.02
2016-05-03T05:38:42.505Z,56.09
2016-05-03T05:39:42.493Z,55.23
2016-05-03T05:40:42.495Z,54.39
2016-05-03T05:41:42.497Z,53.53
2016-05-03T05:42:42.485Z,53.25
2016-05-03T05:43:42.503Z,52.87
2016-05-03T05:44:42.505Z,52.22
2016-05-03T05:45:42.508Z,51.07
2016-05-03T05:46:42.511Z,50.89
2016-05-03T05:47:42.514Z,50.43
2016-05-03T05:48:42.516Z,49
2016-05-03T05:49:42.504Z,48.44
2016-05-03T05:50:42.507Z,47.87
2016-05-03T05:51:42.525Z,48.16
2016-05-03T05:52:42.668Z,47.49
2016-05-03T05:53:42.515Z,47.11
2016-05-03T05:54:42.518Z,46.94
2016-05-03T05:55:42.535Z,46.46
2016-05-03T05:56:42.538Z,46.17
2016-05-03T05:57:42.541Z,46.36
2016-05-03T05:58:42.575Z,45.69
2016-05-03T05:59:42.578Z,45.12
2016-05-03T06:00:42.581Z,45.23
2016-05-03T06:01:42.583Z,45.33
2016-05-03T06:02:42.570Z,44.66
2016-05-03T06:03:42.588Z,44.76
2016-05-03T06:04:42.576Z,44.47
2016-05-03T06:05:42.595Z,44.56
2016-05-03T06:06:42.440Z,44.18
2016-05-03T06:07:42.614Z,43.9
2016-05-03T06:08:42.602Z,44.85
2016-05-03T06:09:42.605Z,45.14
2016-05-03T06:10:42.608Z,46.08
2016-05-03T06:11:42.626Z,46.84
2016-05-03T06:12:42.503Z,47.78
2016-05-03T06:13:42.661Z,49.19
2016-05-03T06:14:42.478Z,50.5
2016-05-03T06:15:42.636Z,51.65
2016-05-03T06:16:42.655Z,52.87
2016-05-03T06:17:42.517Z,53.44
2016-05-03T06:18:42.661Z,53.89
2016-05-03T06:19:42.491Z,55.23
2016-05-03T06:20:42.666Z,56.16
2016-05-03T06:21:42.652Z,56.63
2016-05-03T06:22:42.811Z,56.82
2016-05-03T06:23:42.658Z,57.31
2016-05-03T06:24:42.661Z,56.25
2016-05-03T06:25:42.523Z,54.85
2016-05-03T06:26:42.696Z,53.82
2016-05-03T06:27:42.685Z,53.06
2016-05-03T06:28:42.687Z,50.89
2016-05-03T06:29:42.690Z,49.19
2016-05-03T06:30:42.552Z,48.16
2016-05-03T06:31:42.695Z,46.65
2016-05-03T06:32:42.698Z,45.43
2016-05-03T06:33:42.701Z,44.47
2016-05-03T06:34:42.703Z,43.82
2016-05-03T06:35:42.706Z,43.91
2016-05-03T06:36:42.724Z,43.34
2016-05-03T06:37:42.759Z,43.34
2016-05-03T06:38:42.728Z,42.67
2016-05-03T06:39:42.576Z,41.93
2016-05-03T06:40:42.750Z,41.46
2016-05-03T06:41:42.737Z,40.79
2016-05-03T06:42:42.600Z,40.62
2016-05-03T06:43:42.759Z,40.72
2016-05-03T06:44:42.620Z,40.62
2016-05-03T06:45:42.763Z,39.85
2016-05-03T06:46:42.797Z,39.39
2016-05-03T06:47:42.800Z,38.53
2016-05-03T06:48:42.631Z,38.91
2016-05-03T06:49:42.650Z,38.91
2016-05-03T06:50:42.824Z,39.39
2016-05-03T06:51:42.811Z,39.39
2016-05-03T06:52:42.674Z,39.39
2016-05-03T06:53:42.832Z,38.43
2016-05-03T06:54:42.835Z,37.95
2016-05-03T06:55:42.837Z,38.14
2016-05-03T06:56:42.685Z,37.68
2016-05-03T06:57:42.843Z,37.87
2016-05-03T06:58:42.893Z,38.72
2016-05-03T06:59:42.880Z,38.53
2016-05-03T07:00:42.867Z,38.81
2016-05-03T07:01:42.885Z,38.34
2016-05-03T07:02:42.888Z,37.95
2016-05-03T07:03:42.734Z,38.45
2016-05-03T07:04:42.909Z,38.91
2016-05-03T07:05:42.756Z,39.49
2016-05-03T07:06:42.930Z,39.85
2016-05-03T07:07:42.761Z,40.62
2016-05-03T07:08:42.764Z,40.7
2016-05-03T07:09:42.937Z,41.56
2016-05-03T07:10:42.956Z,41.75
2016-05-03T07:11:42.975Z,41.66
2016-05-03T07:12:42.837Z,40.79
2016-05-03T07:13:42.965Z,39.95
2016-05-03T07:14:42.967Z,39.49
2016-05-03T07:15:42.986Z,38.43
2016-05-03T07:16:42.831Z,38.93
2016-05-03T07:17:43.006Z,38.45
2016-05-03T07:18:43.009Z,38.54
2016-05-03T07:19:43.027Z,38.74
2016-05-03T07:20:42.842Z,39.29
2016-05-03T07:21:43.017Z,39.11
2016-05-03T07:22:43.489Z,39.2
2016-05-03T07:23:43.038Z,38.62
2016-05-03T07:24:43.057Z,37.87
2016-05-03T07:25:43.060Z,37.32
2016-05-03T07:26:43.062Z,37.02
2016-05-03T07:27:43.049Z,37.32
2016-05-03T07:28:43.067Z,37.32
2016-05-03T07:29:43.071Z,37.22
2016-05-03T07:30:43.088Z,36.37
2016-05-03T07:31:43.107Z,36.18
2016-05-03T07:32:42.938Z,35.99
2016-05-03T07:33:43.127Z,35.79
2016-05-03T07:34:43.099Z,36.18
2016-05-03T07:35:43.132Z,35.6
2016-05-03T07:36:43.120Z,35.89
2016-05-03T07:37:43.404Z,36.08
2016-05-03T07:38:42.969Z,36.27
2016-05-03T07:39:43.160Z,35.99
2016-05-03T07:40:43.131Z,36.47
2016-05-03T07:41:43.149Z,36.18
2016-05-03T07:42:43.168Z,36.37
2016-05-03T07:43:43.170Z,37.12
2016-05-03T07:44:43.189Z,37.12
2016-05-03T07:45:43.175Z,37.32
2016-05-03T07:46:43.194Z,37.12
2016-05-03T07:47:43.197Z,37.79
2016-05-03T07:48:43.059Z,37.87
2016-05-03T07:49:43.217Z,38.16
2016-05-03T07:50:43.205Z,38.54
2016-05-03T07:51:43.223Z,38.72
2016-05-03T07:52:43.225Z,38.81
2016-05-03T07:53:43.244Z,38.35
2016-05-03T07:54:43.106Z,38.07
2016-05-03T07:55:43.250Z,36.74
2016-05-03T07:56:43.268Z,36.18
2016-05-03T07:57:43.254Z,36.08
2016-05-03T07:58:43.257Z,35.41
2016-05-03T07:59:43.260Z,36.56
2016-05-03T08:00:43.294Z,37.04
2016-05-03T08:01:43.282Z,36.25
2016-05-03T08:02:43.300Z,35.79
2016-05-03T08:03:43.302Z,36.18
2016-05-03T08:04:43.321Z,36.18
2016-05-03T08:05:43.324Z,36.18
2016-05-03T08:06:43.170Z,36.18
2016-05-03T08:07:43.204Z,35.77
2016-05-03T08:08:43.207Z,36.72
2016-05-03T08:09:43.334Z,35.55
2016-05-03T08:10:43.336Z,35.93
2016-05-03T08:11:43.340Z,35.74
2016-05-03T08:12:43.373Z,34.97
2016-05-03T08:13:43.375Z,34.8
2016-05-03T08:14:43.426Z,34.89
2016-05-03T08:15:43.381Z,34.89
2016-05-03T08:16:43.384Z,34.41
2016-05-03T08:17:43.387Z,34.61
2016-05-03T08:18:43.389Z,34.53
2016-05-03T08:19:43.392Z,35.2
2016-05-03T08:20:43.410Z,35.68
2016-05-03T08:21:43.428Z,35.87
2016-05-03T08:22:43.431Z,36.07
2016-05-03T08:23:43.434Z,36.25
2016-05-03T08:24:43.436Z,36.35
2016-05-03T08:25:43.455Z,35.77
2016-05-03T08:26:43.458Z,35.7
2016-05-03T08:27:43.460Z,35.99
2016-05-03T08:28:43.463Z,35.99
2016-05-03T08:29:43.482Z,35.12
2016-05-03T08:30:43.469Z,34.75
2016-05-03T08:31:43.487Z,34.75
2016-05-03T08:32:43.474Z,34.27
2016-05-03T08:33:43.492Z,33.71
2016-05-03T08:34:43.510Z,33.71
2016-05-03T08:35:43.513Z,33.51
2016-05-03T08:36:43.500Z,34.48
2016-05-03T08:37:43.534Z,34.08
2016-05-03T08:38:43.381Z,34.08
2016-05-03T08:39:43.539Z,34.09
2016-05-03T08:40:43.542Z,34.08
2016-05-03T08:41:43.545Z,34.56
2016-05-03T08:42:43.547Z,35.14
2016-05-03T08:43:43.409Z,35.33
2016-05-03T08:44:43.554Z,36.47
2016-05-03T08:45:43.571Z,37.6
2016-05-03T08:46:43.417Z,38.54
2016-05-03T08:47:43.593Z,39.31
2016-05-03T08:48:43.595Z,39.58
2016-05-03T08:49:43.597Z,40.72
2016-05-03T08:50:43.616Z,41.29
2016-05-03T08:51:43.619Z,42.61
2016-05-03T08:52:43.777Z,43.74
2016-05-03T08:53:43.624Z,43.55
2016-05-03T08:54:43.642Z,43.46
2016-05-03T08:55:43.489Z,43.74
2016-05-03T08:56:43.633Z,43.36
2016-05-03T08:57:43.494Z,43.46
2016-05-03T08:58:43.653Z,43.36
2016-05-03T08:59:43.656Z,43.73
2016-05-03T09:00:43.674Z,43.53
2016-05-03T09:01:43.661Z,43.53
2016-05-03T09:02:43.663Z,43.55
2016-05-03T09:03:43.666Z,43.55
2016-05-03T09:04:43.669Z,43.65
2016-05-03T09:05:43.672Z,42.88
2016-05-03T09:06:43.690Z,43.36
2016-05-03T09:07:43.849Z,43.27
2016-05-03T09:08:43.696Z,43.46
2016-05-03T09:09:43.714Z,43.65
2016-05-03T09:10:43.701Z,44.03
2016-05-03T09:11:43.704Z,43.46
2016-05-03T09:12:43.723Z,43.17
2016-05-03T09:13:43.568Z,42.69
2016-05-03T09:14:43.728Z,43.55
2016-05-03T09:15:43.730Z,43.27
2016-05-03T09:16:43.733Z,43.55
2016-05-03T09:17:43.736Z,43.94
2016-05-03T09:18:43.738Z,44.32
2016-05-03T09:19:43.741Z,44.51
2016-05-03T09:20:43.759Z,44.3
2016-05-03T09:21:43.761Z,44.78
2016-05-03T09:22:44.035Z,43.84
2016-05-03T09:23:43.783Z,43.94
2016-05-03T09:24:43.786Z,42.79
2016-05-03T09:25:43.772Z,42.79
2016-05-03T09:26:43.760Z,42.88
2016-05-03T09:27:43.778Z,43.07
2016-05-03T09:28:43.781Z,43.07
2016-05-03T09:29:43.799Z,42.69
2016-05-03T09:30:43.786Z,42.5
2016-05-03T09:31:43.788Z,42.88
2016-05-03T09:32:43.791Z,42.6
2016-05-03T09:33:43.793Z,42.4
2016-05-03T09:34:43.797Z,42.11
2016-05-03T09:35:43.830Z,42.11
2016-05-03T09:36:43.818Z,42.3
2016-05-03T09:37:43.977Z,42.13
2016-05-03T09:38:43.807Z,42.3
2016-05-03T09:39:43.841Z,41.37
2016-05-03T09:40:43.829Z,39.73
2016-05-03T09:41:43.831Z,39.28
2016-05-03T09:42:43.849Z,39.2
2016-05-03T09:43:43.852Z,39.68
2016-05-03T09:44:43.855Z,39.39
2016-05-03T09:45:43.873Z,39.66
2016-05-03T09:46:43.704Z,39.37
2016-05-03T09:47:43.863Z,39.76
2016-05-03T09:48:43.865Z,40.81
2016-05-03T09:49:43.868Z,40.43
2016-05-03T09:50:43.886Z,40.43
2016-05-03T09:51:43.874Z,40.72
2016-05-03T09:52:43.908Z,39.85
2016-05-03T09:53:43.878Z,39.78
2016-05-03T09:54:43.898Z,39.66
2016-05-03T09:55:43.884Z,40.05
2016-05-03T09:56:43.919Z,40.62
2016-05-03T09:57:43.765Z,40.91
2016-05-03T09:58:43.908Z,41
2016-05-03T09:59:43.911Z,41.2
2016-05-03T10:00:43.929Z,41.37
2016-05-03T10:01:43.933Z,41.56
2016-05-03T10:02:43.935Z,42.04
2016-05-03T10:03:43.921Z,42.11
2016-05-03T10:04:43.940Z,42.11
2016-05-03T10:05:43.958Z,42.21
2016-05-03T10:06:43.945Z,42.21
2016-05-03T10:07:44.073Z,42.3
2016-05-03T10:08:43.794Z,42.11
2016-05-03T10:09:43.953Z,42.21
2016-05-03T10:10:43.799Z,42.3
2016-05-03T10:11:43.959Z,42.6
2016-05-03T10:12:43.805Z,42.6
2016-05-03T10:13:43.979Z,42.79
2016-05-03T10:14:43.998Z,42.3
2016-05-03T10:15:43.985Z,42.98
2016-05-03T10:16:43.988Z,42.6
2016-05-03T10:17:43.990Z,43.17
2016-05-03T10:18:43.993Z,42.5
2016-05-03T10:19:43.995Z,42.47
2016-05-03T10:20:43.999Z,42.11
2016-05-03T10:21:44.001Z,42.11
2016-05-03T10:22:44.191Z,41.73
2016-05-03T10:23:44.006Z,41.54
2016-05-03T10:24:44.009Z,40.87
2016-05-03T10:25:44.012Z,40.48
2016-05-03T10:26:44.015Z,41.37
2016-05-03T10:27:44.033Z,41.46
2016-05-03T10:28:44.020Z,40.99
2016-05-03T10:29:44.055Z,40.72
2016-05-03T10:30:44.041Z,40.14
2016-05-03T10:31:44.044Z,39.76
2016-05-03T10:32:43.906Z,39.85
2016-05-03T10:33:44.065Z,38.99
2016-05-03T10:34:44.068Z,39.56
2016-05-03T10:35:44.071Z,39.28
2016-05-03T10:36:44.089Z,39.66
2016-05-03T10:37:44.091Z,40.5
2016-05-03T10:38:44.079Z,41.17
2016-05-03T10:39:43.941Z,41.56
2016-05-03T10:40:44.084Z,41.46
2016-05-03T10:41:44.087Z,42.52
2016-05-03T10:42:44.105Z,43.46
2016-05-03T10:43:44.107Z,44.9
2016-05-03T10:44:44.110Z,44.7
2016-05-03T10:45:44.113Z,45.47
2016-05-03T10:46:44.115Z,45.95
2016-05-03T10:47:44.134Z,46.41
2016-05-03T10:48:44.120Z,48.04
2016-05-03T10:49:44.123Z,49.07
2016-05-03T10:50:44.126Z,50.51
2016-05-03T10:51:44.129Z,51.37
2016-05-03T10:52:44.132Z,51.82
2016-05-03T10:53:43.978Z,52.5
2016-05-03T10:54:44.136Z,53.16
2016-05-03T10:55:44.140Z,54
2016-05-03T10:56:44.142Z,54.96
2016-05-03T10:57:44.145Z,55.63
2016-05-03T10:58:44.148Z,55.53
2016-05-03T10:59:44.150Z,55.91
2016-05-03T11:00:44.169Z,56.84
2016-05-03T11:01:44.172Z,57.13
2016-05-03T11:02:44.174Z,56.84
2016-05-03T11:03:44.177Z,57.7
2016-05-03T11:04:44.164Z,58.47
2016-05-03T11:05:44.182Z,59.33
2016-05-03T11:06:44.200Z,59.97
2016-05-03T11:07:44.188Z,60.83
2016-05-03T11:08:44.190Z,61.12
2016-05-03T11:09:44.194Z,62.65
2016-05-03T11:10:44.180Z,62.81
2016-05-03T11:11:44.198Z,63.76
2016-05-03T11:12:44.186Z,64.34
2016-05-03T11:13:44.187Z,64.91
2016-05-03T11:14:44.190Z,65.17
2016-05-03T11:15:44.193Z,65.48
2016-05-03T11:16:44.212Z,66.41
2016-05-03T11:17:44.215Z,66.5
2016-05-03T11:18:44.201Z,66.89
2016-05-03T11:19:44.204Z,66.7
2016-05-03T11:20:44.222Z,67.55
2016-05-03T11:21:44.054Z,67.08
2016-05-03T11:22:44.228Z,67.46
2016-05-03T11:23:44.215Z,67.55
2016-05-03T11:24:44.203Z,66.99
2016-05-03T11:25:44.236Z,67.65
2016-05-03T11:26:44.223Z,68.61
2016-05-03T11:27:44.211Z,68.23
2016-05-03T11:28:44.213Z,68.29
2016-05-03T11:29:44.059Z,68.41
2016-05-03T11:30:44.219Z,68.99
2016-05-03T11:31:44.221Z,69.34
2016-05-03T11:32:44.145Z,69.27
2016-05-03T11:33:44.227Z,69.85
2016-05-03T11:34:44.229Z,69.85
2016-05-03T11:35:44.232Z,70.23
2016-05-03T11:36:44.235Z,70.58
2016-05-03T11:37:44.096Z,71.06
2016-05-03T11:38:44.240Z,72.97
2016-05-03T11:39:44.243Z,73.63
2016-05-03T11:40:44.245Z,74.59
2016-05-03T11:41:44.249Z,74.11
2016-05-03T11:42:44.235Z,75.45
2016-05-03T11:43:44.238Z,76.5
2016-05-03T11:44:44.241Z,76.98
2016-05-03T11:45:44.259Z,77.45
2016-05-03T11:46:44.089Z,75.54
2016-05-03T11:47:44.248Z,78.03
2016-05-03T11:48:44.626Z,79.61
2016-05-03T11:49:44.254Z,78.85
2016-05-03T11:50:44.241Z,77.65
2016-05-03T11:51:44.103Z,77.42
2016-05-03T11:52:44.653Z,77.99
2016-05-03T11:53:44.264Z,79.43
2016-05-03T11:54:44.252Z,78.56
2016-05-03T11:55:44.098Z,77.61
2016-05-03T11:56:44.257Z,76.75
2016-05-03T11:57:44.244Z,79.43
2016-05-03T11:58:44.247Z,79.23
2016-05-03T11:59:44.250Z,79.23
2016-05-03T12:00:44.267Z,79.99
2016-05-03T12:01:44.256Z,79.8
2016-05-03T12:02:44.101Z,79.52
2016-05-03T12:03:44.260Z,79.61
2016-05-03T12:04:44.263Z,79.23
2016-05-03T12:05:44.109Z,79.52
2016-05-03T12:06:44.253Z,78.18
2016-05-03T12:07:44.475Z,78.85
2016-05-03T12:08:44.258Z,79.61
2016-05-03T12:09:44.120Z,79.23
2016-05-03T12:10:44.123Z,79.9
2016-05-03T12:11:44.344Z,80.47
2016-05-03T12:12:44.191Z,81.52
2016-05-03T12:13:44.271Z,81.62
2016-05-03T12:14:44.259Z,79.43
2016-05-03T12:15:44.261Z,79.8
2016-05-03T12:16:44.263Z,79.57
2016-05-03T12:17:44.251Z,78.81
2016-05-03T12:18:44.269Z,79
2016-05-03T12:19:44.272Z,79.1
2016-05-03T12:20:44.275Z,79.86
2016-05-03T12:21:44.262Z,80.53
2016-05-03T12:22:44.265Z,80.53
2016-05-03T12:23:44.268Z,79.48
2016-05-03T12:24:44.255Z,79.38
2016-05-03T12:25:44.273Z,80.05
2016-05-03T12:26:44.275Z,80.91
2016-05-03T12:27:44.262Z,80.05
2016-05-03T12:28:44.265Z,79.96
2016-05-03T12:29:44.267Z,80.81
2016-05-03T12:30:44.270Z,79.48
2016-05-03T12:31:44.273Z,79.38
2016-05-03T12:32:44.261Z,78.62
2016-05-03T12:33:44.279Z,80.05
2016-05-03T12:34:44.266Z,80.53
2016-05-03T12:35:44.268Z,79.8
2016-05-03T12:36:44.271Z,76.56
2016-05-03T12:37:44.289Z,74.55
2016-05-03T12:38:44.402Z,74.55
2016-05-03T12:39:44.280Z,72.49
2016-05-03T12:40:44.266Z,73.54
2016-05-03T12:41:44.300Z,72.68
2016-05-03T12:42:44.271Z,70.48
2016-05-03T12:43:44.274Z,71.63
2016-05-03T12:44:44.307Z,70.23
2016-05-03T12:45:44.124Z,70.33
2016-05-03T12:46:44.283Z,71.47
2016-05-03T12:47:44.285Z,70.61
2016-05-03T12:48:44.272Z,70.23
2016-05-03T12:49:44.290Z,69.31
2016-05-03T12:50:44.309Z,69.79
2016-05-03T12:51:44.295Z,72.85
2016-05-03T12:52:44.360Z,69.7
2016-05-03T12:53:44.301Z,69.89
2016-05-03T12:54:44.287Z,70.65
2016-05-03T12:55:44.337Z,71.22